Time;durP1;ratioP1;P1;durP2;ratioP2;P2;SDS_P1;SDS_P2;PMS_P1;PMS_P2;Temp;Humidity;BMP_temperature;BMP_pressure;BME280_temperature;BME280_humidity;BME280_pressure;Samples;Min_cycle;Max_cycle;Signal;HPM_P1;HPM_P2
2023/01/20 00:02:02;;;;;;;2.38;1.55;;;;;;;9.88;88.23;100234.41;4979022;28;20026;-86
2023/01/20 00:04:28;;;;;;;2.60;1.60;;;;;;;9.78;87.92;100226.31;5012771;28;20576;-86
2023/01/20 00:06:53;;;;;;;2.60;1.30;;;;;;;9.83;87.93;100244.13;5011506;28;20516;-86
2023/01/20 00:09:19;;;;;;;4.03;2.33;;;;;;;9.86;88.94;100282.75;4978767;28;20042;-87
2023/01/20 00:11:44;;;;;;;3.47;1.95;;;;;;;9.76;88.67;100266.91;4994846;28;20026;-87
2023/01/20 00:14:10;;;;;;;3.63;1.65;;;;;;;9.75;88.56;100267.81;5010749;28;20033;-86
2023/01/20 00:16:36;;;;;;;2.33;2.00;;;;;;;9.72;88.10;100245.53;4978358;28;20157;-86
2023/01/20 00:19:01;;;;;;;3.83;1.42;;;;;;;9.88;88.53;100206.81;4978700;28;20136;-86
2023/01/20 00:21:27;;;;;;;6.00;1.75;;;;;;;9.78;89.39;100203.06;4994910;28;20100;-86
2023/01/20 00:23:52;;;;;;;1.30;1.15;;;;;;;9.78;88.95;100192.72;4994772;28;20038;-86
2023/01/20 00:26:20;;;;;;;3.58;2.80;;;;;;;9.69;89.25;100183.72;5010415;28;20026;-86
2023/01/20 00:28:45;;;;;;;5.63;2.33;;;;;;;9.58;89.59;100183.44;5010983;28;20030;-86
2023/01/20 00:31:18;;;;;;;3.55;1.90;;;;;;;9.72;89.67;100211.13;5011040;28;20485;-86
2023/01/20 00:33:43;;;;;;;2.08;0.98;;;;;;;9.67;89.89;100205.38;4994662;28;20086;-86
2023/01/20 00:36:09;;;;;;;5.28;2.30;;;;;;;9.71;89.96;100206.88;4994399;28;20596;-85
2023/01/20 00:38:35;;;;;;;6.43;3.53;;;;;;;9.64;89.92;100202.97;4978379;28;20477;-86
2023/01/20 00:41:15;;;;;;;3.55;2.47;;;;;;;9.61;89.57;100197.94;4950216;28;20049;-86
2023/01/20 00:43:41;;;;;;;2.78;1.98;;;;;;;9.62;90.49;100173.75;4994168;28;20418;-86
2023/01/20 00:46:06;;;;;;;2.03;1.58;;;;;;;9.62;90.06;100164.28;4978234;28;20040;-86
2023/01/20 00:48:33;;;;;;;4.25;2.38;;;;;;;9.63;90.44;100178.00;4994475;28;20113;-86
2023/01/20 00:50:58;;;;;;;4.47;2.67;;;;;;;9.52;90.06;100176.00;5010970;28;20459;-85
2023/01/20 00:53:24;;;;;;;2.75;2.22;;;;;;;9.56;90.50;100184.44;4994211;28;20061;-86
2023/01/20 00:55:49;;;;;;;2.30;1.92;;;;;;;9.54;89.94;100186.25;4977681;28;20504;-86
2023/01/20 00:58:15;;;;;;;3.55;2.75;;;;;;;9.38;90.33;100166.38;4977998;28;20040;-85
2023/01/20 01:00:40;;;;;;;4.97;2.55;;;;;;;9.51;90.42;100179.50;4977951;28;20065;-86
2023/01/20 01:03:06;;;;;;;3.03;1.75;;;;;;;9.52;90.42;100185.50;5010511;28;20045;-86
2023/01/20 01:05:31;;;;;;;10.45;1.20;;;;;;;9.59;90.05;100181.69;5010194;28;20042;-86
2023/01/20 01:07:57;;;;;;;3.28;1.75;;;;;;;9.61;90.24;100188.44;5010375;28;20026;-86
2023/01/20 01:10:22;;;;;;;1.33;1.15;;;;;;;9.66;90.46;100194.22;4993457;28;20080;-85
2023/01/20 01:12:48;;;;;;;2.03;1.13;;;;;;;9.68;90.04;100188.97;4994020;28;20113;-85
2023/01/20 01:15:14;;;;;;;5.22;1.63;;;;;;;9.75;89.64;100179.97;4977794;28;20485;-86
2023/01/20 01:17:39;;;;;;;0.75;0.73;;;;;;;9.69;88.80;100169.97;4977932;28;20104;-85
2023/01/20 01:20:05;;;;;;;2.67;0.85;;;;;;;9.71;88.83;100162.97;4993626;28;20112;-86
2023/01/20 01:22:31;;;;;;;5.80;1.48;;;;;;;9.83;89.00;100174.38;5010195;28;20079;-85
2023/01/20 01:24:57;;;;;;;2.50;0.93;;;;;;;9.73;88.80;100150.78;4993410;28;20033;-85
2023/01/20 01:27:23;;;;;;;12.10;1.13;;;;;;;9.63;88.97;100123.78;4992990;28;20034;-86
2023/01/20 01:29:48;;;;;;;1.02;0.93;;;;;;;9.87;88.40;100152.66;4993519;28;20029;-85
2023/01/20 01:32:14;;;;;;;2.92;1.27;;;;;;;9.84;88.42;100151.09;4977584;28;20026;-85
2023/01/20 01:34:39;;;;;;;0.75;0.63;;;;;;;9.67;88.33;100120.13;4993701;28;20030;-85
2023/01/20 01:37:05;;;;;;;1.17;1.02;;;;;;;9.88;87.86;100137.06;4977404;28;20491;-86
2023/01/20 01:39:30;;;;;;;1.20;0.90;;;;;;;9.94;86.95;100135.91;4993324;28;20030;-86
2023/01/20 01:41:56;;;;;;;1.50;1.08;;;;;;;9.92;87.34;100127.38;4993583;28;20087;-85
2023/01/20 01:44:23;;;;;;;3.95;1.25;;;;;;;9.93;86.63;100123.88;5009807;28;20061;-86
2023/01/20 01:46:48;;;;;;;3.47;1.83;;;;;;;9.88;87.12;100126.72;4977554;28;20037;-86
2023/01/20 01:49:28;;;;;;;3.25;1.20;;;;;;;9.85;87.52;100118.31;4993363;28;20026;-86
2023/01/20 01:52:04;;;;;;;3.75;1.50;;;;;;;9.80;87.56;100126.31;4993610;28;20030;-86
2023/01/20 01:54:33;;;;;;;2.20;1.30;;;;;;;9.82;87.02;100124.47;5009459;28;20034;-86
2023/01/20 01:56:58;;;;;;;1.38;1.13;;;;;;;10.02;86.52;100150.06;5009729;28;20038;-86
2023/01/20 01:59:24;;;;;;;0.75;0.60;;;;;;;10.02;86.48;100139.72;5009784;28;20037;-85
2023/01/20 02:01:50;;;;;;;1.30;0.93;;;;;;;10.00;86.58;100144.16;5009776;28;20030;-86
2023/01/20 02:04:19;;;;;;;1.30;0.88;;;;;;;9.98;85.67;100133.06;4993238;28;20026;-86
2023/01/20 02:06:48;;;;;;;1.23;1.00;;;;;;;9.94;86.59;100129.00;4993448;28;20416;-85
2023/01/20 02:09:13;;;;;;;1.90;1.52;;;;;;;9.82;86.46;100102.97;4993199;28;20026;-85
2023/01/20 02:11:47;;;;;;;1.60;1.10;;;;;;;9.98;86.41;100125.31;5009700;28;20034;-85
2023/01/20 02:14:16;;;;;;;0.88;0.70;;;;;;;9.94;85.88;100123.00;4994151;28;20030;-86
2023/01/20 02:16:52;;;;;;;1.60;1.10;;;;;;;9.59;86.13;100070.63;4977298;28;20050;-85
2023/01/20 02:20:09;;;;;;;0.75;0.68;;;;;;;9.91;86.20;100116.22;4994382;28;20029;-85
2023/01/20 02:23:14;;;;;;;1.15;1.05;;;;;;;9.85;86.27;100103.66;4987880;28;20500;-85
2023/01/20 02:26:11;;;;;;;2.65;1.13;;;;;;;9.83;85.93;100107.22;4985826;28;20033;-85
2023/01/20 02:28:51;;;;;;;0.80;0.63;;;;;;;9.63;86.19;100059.22;5010292;28;20444;-85
2023/01/20 02:31:20;;;;;;;3.53;1.10;;;;;;;9.64;86.48;100073.81;5009186;28;20030;-86
2023/01/20 02:33:57;;;;;;;2.17;1.58;;;;;;;9.81;86.04;100094.38;5009263;28;20034;-85
2023/01/20 02:36:41;;;;;;;1.70;1.23;;;;;;;9.62;86.10;100062.72;5010504;28;20050;-86
2023/01/20 02:39:18;;;;;;;1.38;1.23;;;;;;;9.73;85.50;100087.06;4995507;28;20045;-86
2023/01/20 02:42:02;;;;;;;4.07;1.80;;;;;;;9.54;85.69;100067.44;4997996;28;20030;-86
2023/01/20 02:44:39;;;;;;;2.25;1.92;;;;;;;9.75;85.44;100105.06;4998535;28;20038;-85
2023/01/20 02:47:18;;;;;;;1.13;1.00;;;;;;;9.61;85.93;100092.88;5012962;28;20034;-85
2023/01/20 02:50:08;;;;;;;3.13;2.10;;;;;;;9.66;86.10;100087.47;4996466;28;20567;-85
2023/01/20 02:52:44;;;;;;;3.80;2.03;;;;;;;9.34;86.35;100034.94;4996072;28;20096;-85
2023/01/20 02:55:12;;;;;;;1.80;1.60;;;;;;;9.51;85.76;100052.13;5012616;28;20495;-85
2023/01/20 02:57:41;;;;;;;2.45;1.13;;;;;;;9.61;85.83;100081.72;4980299;28;20057;-86
2023/01/20 03:00:11;;;;;;;6.65;1.42;;;;;;;9.59;85.66;100080.97;4996387;28;20036;-85
2023/01/20 03:02:37;;;;;;;3.40;2.08;;;;;;;9.48;86.34;100081.53;4996340;28;20124;-85
2023/01/20 03:05:16;;;;;;;8.07;5.90;;;;;;;9.44;86.20;100064.56;4996331;28;20485;-85
2023/01/20 03:07:41;;;;;;;5.07;3.08;;;;;;;9.55;86.00;100076.91;4979979;28;20034;-85
2023/01/20 03:10:09;;;;;;;4.07;2.47;;;;;;;9.50;85.69;100082.28;4980003;28;20626;-86
2023/01/20 03:12:54;;;;;;;2.55;1.42;;;;;;;9.57;85.48;100082.81;4996087;28;20030;-85
2023/01/20 03:15:22;;;;;;;4.05;2.17;;;;;;;9.48;85.43;100082.38;4995981;28;20053;-86
2023/01/20 03:17:47;;;;;;;2.10;1.23;;;;;;;9.36;85.84;100075.28;4980038;28;20050;-86
2023/01/20 03:20:13;;;;;;;3.65;1.20;;;;;;;9.06;85.41;100030.44;4995849;28;20034;-85
2023/01/20 03:22:38;;;;;;;3.25;1.58;;;;;;;9.39;85.79;100090.59;4995981;28;20095;-85
2023/01/20 03:25:05;;;;;;;1.92;1.60;;;;;;;9.35;85.65;100077.94;4995983;28;20053;-85
2023/01/20 03:27:30;;;;;;;1.80;1.23;;;;;;;9.31;85.82;100077.25;4995742;28;20037;-85
2023/01/20 03:29:55;;;;;;;3.72;1.65;;;;;;;9.18;85.78;100066.75;4995631;28;20026;-85
2023/01/20 03:32:25;;;;;;;1.98;1.17;;;;;;;9.19;85.69;100063.25;4979730;28;20026;-85
2023/01/20 03:34:52;;;;;;;2.80;2.08;;;;;;;9.18;85.41;100076.22;5011648;28;20029;-86
2023/01/20 03:37:18;;;;;;;3.38;1.80;;;;;;;9.15;86.30;100082.41;4995758;28;20429;-85
2023/01/20 03:39:43;;;;;;;2.78;1.73;;;;;;;9.16;86.03;100075.50;4995868;28;20030;-85
2023/01/20 03:42:15;;;;;;;2.30;1.73;;;;;;;9.13;85.97;100057.56;4979506;28;20524;-85
2023/01/20 03:44:56;;;;;;;3.15;2.10;;;;;;;9.12;85.80;100071.38;4979525;28;20030;-86
2023/01/20 03:47:52;;;;;;;4.32;2.60;;;;;;;9.08;85.12;100060.38;4995539;28;20421;-85
2023/01/20 03:50:23;;;;;;;4.78;3.47;;;;;;;9.06;86.04;100057.06;5010414;28;20515;-85
2023/01/20 03:52:52;;;;;;;1.52;0.98;;;;;;;8.99;85.75;100041.97;5012870;28;20033;-85
2023/01/20 03:55:22;;;;;;;5.57;0.77;;;;;;;8.97;85.10;100026.56;4995310;28;20034;-85
2023/01/20 03:57:57;;;;;;;4.20;2.70;;;;;;;9.15;84.40;100055.75;5011743;28;20120;-85
2023/01/20 04:00:23;;;;;;;2.83;2.40;;;;;;;8.97;84.71;100012.84;5011958;28;20034;-85
2023/01/20 04:02:48;;;;;;;10.23;2.38;;;;;;;9.13;85.17;100036.91;4995176;28;20026;-84
2023/01/20 04:05:14;;;;;;;6.88;4.35;;;;;;;9.19;84.11;100031.44;4978644;28;20088;-84
2023/01/20 04:07:39;;;;;;;6.15;3.42;;;;;;;9.16;83.64;100036.78;4978783;28;20482;-83
2023/01/20 04:10:10;;;;;;;3.20;2.03;;;;;;;9.28;84.67;100056.78;4978862;28;20068;-84
2023/01/20 04:12:35;;;;;;;2.53;1.80;;;;;;;9.10;83.78;100037.91;5011079;28;20052;-84
2023/01/20 04:15:01;;;;;;;2.92;2.35;;;;;;;9.19;83.66;100052.09;4994956;28;20022;-84
2023/01/20 04:17:29;;;;;;;4.70;2.83;;;;;;;9.26;83.97;100050.88;4994538;28;20460;-83
2023/01/20 04:19:55;;;;;;;3.33;2.47;;;;;;;9.20;82.85;100043.44;5010994;28;20025;-83
2023/01/20 04:22:33;;;;;;;3.00;1.67;;;;;;;9.25;83.12;100043.22;5011169;28;20036;-84
2023/01/20 04:25:21;;;;;;;5.55;1.55;;;;;;;9.01;83.34;100022.09;5005703;28;20033;-85
2023/01/20 04:27:46;;;;;;;2.28;1.67;;;;;;;9.14;83.11;100038.59;5010137;28;20038;-84
2023/01/20 04:30:12;;;;;;;3.30;1.95;;;;;;;9.02;83.66;100032.31;5010813;28;20084;-85
2023/01/20 04:32:38;;;;;;;4.00;1.73;;;;;;;8.91;84.42;100022.56;4994621;28;20022;-85
2023/01/20 04:35:04;;;;;;;3.78;2.55;;;;;;;9.04;84.00;100055.44;5010495;28;20025;-85
2023/01/20 04:37:29;;;;;;;5.88;4.28;;;;;;;8.85;84.49;100053.84;5010639;28;20065;-85
2023/01/20 04:39:54;;;;;;;3.55;2.45;;;;;;;8.86;84.51;100054.69;5022810;28;20086;-85
2023/01/20 04:42:20;;;;;;;3.25;2.05;;;;;;;9.01;84.22;100065.94;5033381;28;20025;-86
2023/01/20 04:44:45;;;;;;;2.83;1.75;;;;;;;8.88;84.33;100069.16;5033664;28;20029;-83
2023/01/20 04:47:11;;;;;;;6.00;3.30;;;;;;;8.84;84.60;100065.03;5050591;28;20033;-86
2023/01/20 04:49:37;;;;;;;4.20;2.15;;;;;;;8.95;84.42;100064.53;5033175;28;20063;-86
2023/01/20 04:52:02;;;;;;;4.75;2.70;;;;;;;8.98;83.89;100059.19;5033691;28;20032;-86
2023/01/20 04:54:28;;;;;;;2.08;1.40;;;;;;;8.74;83.98;100019.16;5051655;28;20059;-86
2023/01/20 04:56:53;;;;;;;4.85;3.63;;;;;;;8.78;84.10;100034.41;5033256;28;20511;-81
2023/01/20 04:59:19;;;;;;;4.03;1.65;;;;;;;8.79;84.41;100023.19;5033487;28;20040;-81
2023/01/20 05:01:44;;;;;;;1.65;1.50;;;;;;;8.85;84.06;100020.31;5049519;28;20476;-82
2023/01/20 05:04:10;;;;;;;1.75;1.48;;;;;;;8.85;83.83;100022.88;5033419;28;20028;-82
2023/01/20 05:06:35;;;;;;;2.05;1.25;;;;;;;8.89;84.40;100050.19;5050316;28;20064;-82
2023/01/20 05:09:01;;;;;;;1.55;1.13;;;;;;;8.96;84.75;100044.72;5033019;28;20075;-82
2023/01/20 05:11:26;;;;;;;5.22;4.28;;;;;;;8.63;85.18;99994.75;5001162;28;20092;-83
2023/01/20 05:13:52;;;;;;;3.55;1.63;;;;;;;8.84;84.21;100010.88;5011141;28;20041;-83
2023/01/20 05:16:24;;;;;;;5.20;2.88;;;;;;;8.88;83.98;100007.25;5022443;28;20049;-82
2023/01/20 05:18:50;;;;;;;8.27;3.42;;;;;;;8.91;84.42;100017.41;5030758;28;20133;-83
2023/01/20 05:21:15;;;;;;;6.10;3.05;;;;;;;8.95;84.19;100022.38;5029973;28;20496;-92
2023/01/20 05:23:40;;;;;;;7.55;3.55;;;;;;;8.99;83.71;100032.47;5025277;28;20036;-87
2023/01/20 05:26:06;;;;;;;3.05;2.17;;;;;;;8.90;84.38;100020.06;4997130;28;20026;-84
2023/01/20 05:28:31;;;;;;;3.22;2.47;;;;;;;8.94;83.76;100024.13;5029760;28;20042;-91
2023/01/20 05:30:57;;;;;;;3.90;3.20;;;;;;;8.89;83.83;100029.53;5028730;28;20515;-86
2023/01/20 05:33:22;;;;;;;2.75;2.33;;;;;;;8.78;84.33;100011.22;5012918;28;20033;-80
2023/01/20 05:35:48;;;;;;;4.28;2.88;;;;;;;8.89;84.13;100039.88;5012448;28;20033;-85
2023/01/20 05:38:13;;;;;;;4.18;2.67;;;;;;;8.79;84.55;100018.03;5008031;28;20030;-91
2023/01/20 05:40:39;;;;;;;5.07;3.03;;;;;;;8.90;84.53;100030.38;4993047;28;20579;-88
2023/01/20 05:43:04;;;;;;;5.25;2.63;;;;;;;8.82;83.84;99992.06;4978616;28;20032;-86
2023/01/20 05:45:36;;;;;;;8.57;1.58;;;;;;;8.99;83.84;100005.84;5023190;28;20033;-93
2023/01/20 05:48:02;;;;;;;4.97;3.90;;;;;;;9.01;83.33;100012.59;5009808;28;20576;-91
2023/01/20 05:50:27;;;;;;;8.32;2.33;;;;;;;8.79;83.37;99988.84;5008193;28;20026;-91
2023/01/20 05:52:53;;;;;;;4.18;2.28;;;;;;;9.06;83.15;100040.75;5027819;28;20118;-89
2023/01/20 05:55:18;;;;;;;2.22;1.70;;;;;;;8.89;83.67;100034.69;5012811;28;20029;-87
2023/01/20 05:57:44;;;;;;;1.77;1.20;;;;;;;9.07;83.41;100052.72;5029525;28;20053;-94
2023/01/20 06:00:11;;;;;;;4.03;2.88;;;;;;;8.95;83.78;100054.22;5010961;28;20115;-87
2023/01/20 06:02:37;;;;;;;3.60;2.17;;;;;;;8.89;84.37;100049.34;4998313;28;20029;-90
2023/01/20 06:05:02;;;;;;;4.95;3.05;;;;;;;8.97;84.19;100056.69;5012716;28;20025;-86
2023/01/20 06:07:28;;;;;;;4.13;3.15;;;;;;;9.01;83.72;100086.59;5025995;28;20025;-86
2023/01/20 06:09:54;;;;;;;18.83;4.20;;;;;;;8.98;84.09;100094.50;5005847;28;20484;-87
2023/01/20 06:12:19;;;;;;;4.18;2.75;;;;;;;8.90;84.26;100077.66;5042294;28;20037;-89
2023/01/20 06:14:45;;;;;;;3.72;3.05;;;;;;;8.88;84.74;100078.63;5011345;28;20088;-90
2023/01/20 06:17:11;;;;;;;3.47;2.15;;;;;;;9.02;84.24;100080.50;5016289;28;20049;-94
2023/01/20 06:19:36;;;;;;;10.70;5.13;;;;;;;9.13;83.56;100075.63;5033912;28;20056;-87
2023/01/20 06:22:02;;;;;;;7.90;5.72;;;;;;;9.12;82.98;100050.75;5032803;28;20477;-91
2023/01/20 06:24:27;;;;;;;3.88;3.08;;;;;;;9.14;83.42;100033.41;5015603;28;20033;-79
2023/01/20 06:26:53;;;;;;;11.85;6.47;;;;;;;9.23;82.50;100006.28;5029241;28;20029;-85
2023/01/20 06:29:19;;;;;;;8.60;3.05;;;;;;;8.96;83.07;99967.31;5012925;28;20514;-88
2023/01/20 06:31:47;;;;;;;3.65;1.75;;;;;;;8.99;83.82;99982.63;5013632;28;20551;-91
2023/01/20 06:34:13;;;;;;;3.95;2.88;;;;;;;8.98;84.04;99986.13;5015121;28;20029;-86
2023/01/20 06:36:57;;;;;;;6.35;3.50;;;;;;;8.98;83.81;99991.28;5023293;28;20183;-90
2023/01/20 06:39:22;;;;;;;12.68;5.97;;;;;;;8.94;83.42;99974.28;5029260;28;20124;-94
2023/01/20 06:41:48;;;;;;;5.97;4.18;;;;;;;8.96;83.88;99975.91;5036190;28;20488;-95
2023/01/20 06:44:14;;;;;;;15.43;3.92;;;;;;;8.87;84.20;99973.78;5014674;28;20030;-92
2023/01/20 06:46:40;;;;;;;3.65;2.50;;;;;;;8.81;84.86;99995.56;4995484;28;20033;-95
2023/01/20 06:49:05;;;;;;;9.68;5.95;;;;;;;8.87;84.45;100005.59;5017406;28;20029;-93
2023/01/20 06:51:32;;;;;;;26.60;10.48;;;;;;;8.76;84.01;99992.41;5015980;28;20029;-81
2023/01/20 06:53:57;;;;;;;17.30;9.32;;;;;;;8.87;84.09;100015.91;5029081;28;20026;-91
2023/01/20 06:56:23;;;;;;;9.07;4.68;;;;;;;8.94;85.50;100020.72;5033087;28;20096;-89
2023/01/20 06:58:49;;;;;;;5.57;3.38;;;;;;;8.90;85.38;100020.88;5032114;28;20052;-87
2023/01/20 07:01:25;;;;;;;5.88;4.65;;;;;;;9.03;84.84;100036.56;5026431;28;20081;-86
2023/01/20 07:03:50;;;;;;;7.07;2.80;;;;;;;9.07;84.39;100045.00;5021202;28;20657;-89
2023/01/20 07:06:30;;;;;;;5.57;2.78;;;;;;;9.10;84.12;100032.75;5016662;28;20113;-91
2023/01/20 07:08:56;;;;;;;9.02;4.38;;;;;;;8.77;83.68;99977.75;5006159;28;20042;-90
2023/01/20 07:11:21;;;;;;;11.95;5.93;;;;;;;9.14;84.36;100023.97;5014385;28;20480;-92
2023/01/20 07:13:47;;;;;;;17.80;8.77;;;;;;;8.97;83.96;100010.28;5018302;28;20026;-86
2023/01/20 07:16:12;;;;;;;23.02;13.50;;;;;;;9.03;84.51;100033.97;5032135;28;20141;-84
2023/01/20 07:18:38;;;;;;;14.15;6.60;;;;;;;9.14;84.26;100060.09;5012034;28;20034;-87
2023/01/20 07:21:04;;;;;;;14.18;6.28;;;;;;;9.04;84.31;100043.38;4996049;28;20515;-85
2023/01/20 07:23:32;;;;;;;14.80;8.20;;;;;;;9.13;85.87;100067.88;5031817;28;20393;-92
2023/01/20 07:26:10;;;;;;;5.53;4.43;;;;;;;9.31;83.98;100073.84;5034750;28;20104;-88
2023/01/20 07:28:36;;;;;;;10.73;6.13;;;;;;;9.27;83.99;100065.44;5014384;28;20041;-86
2023/01/20 07:31:06;;;;;;;17.30;9.70;;;;;;;9.01;84.35;100027.25;5012969;28;20029;-85
2023/01/20 07:33:32;;;;;;;11.02;6.45;;;;;;;9.28;83.74;100056.78;5029255;28;20441;-85
2023/01/20 07:35:57;;;;;;;10.35;7.20;;;;;;;9.34;84.38;100050.44;5013583;28;20036;-87
2023/01/20 07:38:23;;;;;;;5.35;4.38;;;;;;;9.34;84.46;100037.53;5033300;28;20072;-93
2023/01/20 07:40:48;;;;;;;4.00;2.95;;;;;;;9.24;84.89;100003.63;5023766;28;20033;-83
2023/01/20 07:43:14;;;;;;;4.72;2.95;;;;;;;9.47;84.35;100010.16;5018065;28;20029;-90
2023/01/20 07:45:39;;;;;;;28.75;15.00;;;;;;;9.43;85.17;100011.22;5017191;28;20055;-92
2023/01/20 07:48:06;;;;;;;32.58;15.30;;;;;;;9.52;84.91;100012.47;5016449;28;20030;-88
2023/01/20 07:50:33;;;;;;;12.75;7.05;;;;;;;9.45;84.58;100006.84;4997341;28;20044;-93
2023/01/20 07:52:58;;;;;;;4.45;3.15;;;;;;;9.49;84.06;100009.16;5008783;28;20041;-82
2023/01/20 07:55:24;;;;;;;4.97;3.33;;;;;;;9.49;84.36;100022.06;5031754;28;20033;-89
2023/01/20 07:57:49;;;;;;;7.78;3.97;;;;;;;9.45;84.91;100028.31;4999049;28;20642;-86
2023/01/20 08:00:17;;;;;;;4.55;3.35;;;;;;;9.55;85.19;100023.50;5014164;28;20056;-86
2023/01/20 08:02:43;;;;;;;8.10;4.50;;;;;;;9.54;84.63;100018.38;5013589;28;20493;-91
2023/01/20 08:05:08;;;;;;;9.68;3.35;;;;;;;9.49;84.23;100018.66;4996872;28;20036;-88
2023/01/20 08:07:34;;;;;;;6.95;3.97;;;;;;;9.72;84.31;100041.47;5011832;28;20029;-89
2023/01/20 08:09:59;;;;;;;8.60;3.78;;;;;;;9.74;83.98;100029.31;5010448;28;20029;-87
2023/01/20 08:12:25;;;;;;;4.53;3.78;;;;;;;9.72;83.89;100025.13;5011240;28;20551;-88
2023/01/20 08:14:50;;;;;;;10.88;4.60;;;;;;;9.77;84.12;100036.91;4997494;28;20492;-86
2023/01/20 08:17:16;;;;;;;6.05;3.75;;;;;;;9.82;84.69;100036.63;5027465;28;20103;-90
2023/01/20 08:19:41;;;;;;;20.95;11.27;;;;;;;9.82;83.94;100025.47;5008672;28;20068;-93
2023/01/20 08:22:07;;;;;;;6.68;4.07;;;;;;;9.76;84.77;100011.16;5013539;28;20076;-81
2023/01/20 08:24:33;;;;;;;9.85;5.07;;;;;;;9.83;85.02;100011.63;5012156;28;20049;-91
2023/01/20 08:26:59;;;;;;;11.52;5.13;;;;;;;9.71;84.97;99984.72;5027172;28;20025;-94
2023/01/20 08:29:24;;;;;;;21.50;5.88;;;;;;;9.87;85.08;100024.31;5020051;28;20040;-82
2023/01/20 08:31:50;;;;;;;17.52;7.90;;;;;;;9.99;85.23;100036.53;5030051;28;20031;-88
2023/01/20 08:34:17;;;;;;;14.38;6.90;;;;;;;10.01;84.37;100029.53;5029024;28;20038;-90
2023/01/20 08:36:43;;;;;;;8.93;5.18;;;;;;;10.05;84.08;100028.44;5012804;28;20048;-94
2023/01/20 08:39:09;;;;;;;12.02;6.90;;;;;;;10.16;83.89;100039.94;5013040;28;20045;-91
2023/01/20 08:41:36;;;;;;;11.68;5.88;;;;;;;10.08;84.24;100019.69;5029701;28;20025;-96
2023/01/20 08:44:05;;;;;;;8.68;5.47;;;;;;;10.09;84.07;100017.94;5021938;28;20579;-89
2023/01/20 08:46:31;;;;;;;10.98;5.38;;;;;;;10.12;84.13;100038.44;5011421;28;20068;-85
2023/01/20 08:48:56;;;;;;;9.30;4.60;;;;;;;10.16;84.53;100043.34;5012307;28;20480;-89
2023/01/20 08:51:29;;;;;;;11.63;6.43;;;;;;;10.35;84.58;100053.53;5002695;28;20026;-94
2023/01/20 08:53:55;;;;;;;13.68;7.25;;;;;;;10.35;83.97;100045.75;5030260;28;20036;-94
2023/01/20 08:56:20;;;;;;;11.00;5.55;;;;;;;10.27;83.69;100032.44;5040028;28;20044;-81
2023/01/20 08:58:46;;;;;;;10.45;5.93;;;;;;;10.41;83.43;100035.06;5011104;28;20191;-89
2023/01/20 09:01:14;;;;;;;16.75;6.00;;;;;;;10.27;84.18;100029.84;5008162;28;20117;-89
2023/01/20 09:03:39;;;;;;;6.82;4.93;;;;;;;10.34;84.82;100029.41;4994913;28;20021;-90
2023/01/20 09:06:05;;;;;;;9.93;6.80;;;;;;;10.39;84.23;100025.72;5026746;28;20385;-88
2023/01/20 09:08:31;;;;;;;8.98;6.07;;;;;;;10.50;83.97;100039.69;5018776;28;20123;-86
2023/01/20 09:11:01;;;;;;;23.45;9.40;;;;;;;10.48;84.58;100041.53;5011876;28;20108;-82
2023/01/20 09:13:27;;;;;;;8.90;6.97;;;;;;;10.53;83.57;100028.38;5028075;28;21192;-86
2023/01/20 09:15:52;;;;;;;8.80;5.18;;;;;;;10.48;83.31;99989.81;5010221;28;20112;-89
2023/01/20 09:18:18;;;;;;;6.90;4.00;;;;;;;10.68;83.13;100018.84;5028467;28;20408;-88
2023/01/20 09:20:43;;;;;;;8.13;4.28;;;;;;;10.69;83.07;100018.75;5027737;28;20064;-88
2023/01/20 09:23:09;;;;;;;5.60;3.55;;;;;;;10.70;82.75;99998.91;5027380;28;20507;-88
2023/01/20 09:25:35;;;;;;;4.63;2.67;;;;;;;10.82;82.65;100003.38;5009827;28;20037;-82
2023/01/20 09:28:00;;;;;;;6.53;3.85;;;;;;;10.76;82.52;99989.03;5027141;28;20034;-83
2023/01/20 09:30:26;;;;;;;9.63;3.53;;;;;;;10.76;82.29;99970.09;5028651;28;20109;-89
2023/01/20 09:32:54;;;;;;;3.63;2.42;;;;;;;10.67;82.31;99962.88;5027508;28;20107;-84
2023/01/20 09:35:19;;;;;;;6.95;3.90;;;;;;;10.61;82.87;99938.19;5031157;28;20025;-94
2023/01/20 09:43:55;;;;;;;12.57;7.60;;;;;;;10.74;83.57;99948.66;5031702;28;20591;-87
2023/01/20 09:46:45;;;;;;;10.57;5.60;;;;;;;10.89;82.70;99960.66;5022152;28;20040;-83
2023/01/20 09:55:16;;;;;;;5.63;3.53;;;;;;;10.88;82.29;99917.59;4994851;28;20049;-86
2023/01/20 09:57:42;;;;;;;6.22;3.20;;;;;;;10.90;82.28;99900.22;5004983;28;20496;-87
2023/01/20 10:00:15;;;;;;;6.30;4.03;;;;;;;10.90;82.26;99898.44;5010276;28;20060;-82
2023/01/20 10:02:42;;;;;;;14.57;5.00;;;;;;;11.00;82.17;99916.00;5012024;28;20029;-84
2023/01/20 10:05:12;;;;;;;6.05;3.38;;;;;;;11.01;82.23;99934.03;5011412;28;20040;-86
2023/01/20 10:08:16;;;;;;;6.13;3.80;;;;;;;11.06;83.96;99933.75;5009963;28;20423;-90
2023/01/20 10:10:56;;;;;;;6.85;4.60;;;;;;;10.79;84.03;99900.03;5023187;28;20045;-89
2023/01/20 10:13:51;;;;;;;7.30;4.70;;;;;;;10.81;83.36;99930.06;5007240;28;20034;-82
2023/01/20 10:16:24;;;;;;;8.63;4.45;;;;;;;10.73;83.32;99921.13;5005948;28;20056;-83
2023/01/20 10:18:53;;;;;;;8.85;5.03;;;;;;;10.77;83.91;99935.53;4991546;28;20044;-82
2023/01/20 10:21:25;;;;;;;6.78;3.05;;;;;;;10.75;83.74;99908.91;4990848;28;20536;-84
2023/01/20 10:23:53;;;;;;;3.08;2.17;;;;;;;10.89;82.62;99906.31;5021322;28;20065;-82
2023/01/20 10:26:48;;;;;;;10.88;4.25;;;;;;;10.95;82.87;99908.53;5005460;28;20039;-84
2023/01/20 10:29:21;;;;;;;7.60;5.00;;;;;;;10.99;83.53;99902.22;5029983;28;20029;-81
2023/01/20 10:31:58;;;;;;;9.25;4.57;;;;;;;11.01;83.00;99890.03;5012379;28;20065;-86
2023/01/20 10:34:24;;;;;;;7.57;2.90;;;;;;;11.09;83.39;99902.50;4989283;28;20037;-86
2023/01/20 10:36:58;;;;;;;6.18;3.20;;;;;;;11.04;82.75;99905.38;5010677;28;20030;-85
2023/01/20 10:39:37;;;;;;;3.58;2.05;;;;;;;10.94;82.56;99882.75;5012247;28;20108;-79
2023/01/20 10:42:04;;;;;;;6.40;3.88;;;;;;;10.98;82.24;99873.84;5027438;28;20030;-84
2023/01/20 10:44:32;;;;;;;5.82;4.15;;;;;;;11.09;81.96;99908.50;5013141;28;20021;-85
2023/01/20 10:47:24;;;;;;;12.18;6.15;;;;;;;11.16;81.72;99920.13;5012180;28;20032;-89
2023/01/20 10:50:08;;;;;;;9.55;5.80;;;;;;;11.10;81.76;99925.69;5028116;28;20030;-83
2023/01/20 10:53:02;;;;;;;8.32;5.65;;;;;;;10.96;81.67;99899.84;5029666;28;20025;-85
2023/01/20 10:55:37;;;;;;;9.68;6.57;;;;;;;11.24;81.49;99932.59;5012508;28;20075;-82
2023/01/20 10:58:40;;;;;;;10.52;4.45;;;;;;;11.31;82.06;99938.25;5028351;28;20032;-82
2023/01/20 11:01:08;;;;;;;;;;;;;;;11.40;81.29;99945.41;5031249;28;20108;-82
2023/01/20 11:03:39;;;;;;;5.32;2.70;;;;;;;11.23;81.19;99930.13;5032677;28;19991;-81
2023/01/20 11:06:05;;;;;;;13.05;5.25;;;;;;;11.22;81.71;99939.66;5014591;28;20029;-89
2023/01/20 11:08:31;;;;;;;6.25;3.58;;;;;;;11.32;81.31;99929.53;5011662;28;20040;-81
2023/01/20 11:11:08;;;;;;;14.07;5.95;;;;;;;11.43;81.31;99935.69;5012119;28;20104;-85
2023/01/20 11:13:34;;;;;;;8.43;5.38;;;;;;;11.42;80.31;99936.63;5012336;28;20057;-85
2023/01/20 11:16:01;;;;;;;8.50;4.60;;;;;;;11.49;79.17;99927.53;5011534;28;20030;-82
2023/01/20 11:18:28;;;;;;;5.40;4.10;;;;;;;11.42;79.87;99935.81;5011361;28;20061;-86
2023/01/20 11:21:07;;;;;;;7.80;5.32;;;;;;;11.05;80.17;99886.31;5011876;28;20496;-92
2023/01/20 11:23:51;;;;;;;10.07;6.30;;;;;;;11.36;80.10;99933.59;5007388;28;20221;-86
2023/01/20 11:26:21;;;;;;;10.98;4.72;;;;;;;11.35;80.28;99944.88;5011595;28;20030;-82
2023/01/20 11:29:09;;;;;;;5.82;3.35;;;;;;;11.10;80.71;99941.22;5011776;28;20026;-81
2023/01/20 11:31:42;;;;;;;2.60;2.38;;;;;;;10.77;82.12;99959.66;4997365;28;20499;-79
2023/01/20 11:34:21;;;;;;;3.83;2.25;;;;;;;10.66;82.11;99961.22;5011787;28;20026;-89
2023/01/20 11:36:47;;;;;;;4.28;2.63;;;;;;;10.14;82.67;99922.88;5012200;28;20034;-87
2023/01/20 11:39:27;;;;;;;5.35;3.22;;;;;;;10.27;82.86;99947.97;4995347;28;20096;-82
2023/01/20 11:42:21;;;;;;;4.93;1.83;;;;;;;10.22;83.27;99964.66;5011784;28;20029;-81
2023/01/20 11:44:48;;;;;;;2.15;1.95;;;;;;;10.09;83.92;99950.75;5011637;28;20033;-80
2023/01/20 11:47:29;;;;;;;2.33;1.65;;;;;;;10.07;83.91;99974.91;5017010;28;20128;-83
2023/01/20 11:50:07;;;;;;;2.13;1.30;;;;;;;9.03;79.29;99973.81;5015569;28;20091;-87
2023/01/20 11:52:37;;;;;;;1.60;1.42;;;;;;;8.36;79.00;99972.09;5030784;28;20029;-82
2023/01/20 11:55:07;;;;;;;3.75;1.60;;;;;;;7.79;79.93;99982.59;5028403;28;20112;-83